createdAt,value
2017-01-06T00:01:05.788Z,1039.3
2017-01-06T00:03:38.555Z,1039.3
2017-01-06T00:06:24.317Z,1039.3
2017-01-06T00:09:09.393Z,1039.3
2017-01-06T00:11:48.518Z,1039.3
2017-01-06T00:14:22.007Z,1039.3
2017-01-06T00:16:54.417Z,1039.3
2017-01-06T00:19:26.854Z,1039.3
2017-01-06T00:21:59.248Z,1039.3
2017-01-06T00:24:31.638Z,1039.3
2017-01-06T00:27:04.128Z,1039.3
2017-01-06T00:29:36.707Z,1039.3
2017-01-06T00:32:09.092Z,1039.3
2017-01-06T00:34:41.795Z,1039.3
2017-01-06T00:37:14.168Z,1039.3
2017-01-06T00:42:50.999Z,1039.3
2017-01-06T00:45:23.392Z,1039.3
2017-01-06T00:47:55.791Z,1039.4
2017-01-06T00:50:28.178Z,1039.4
2017-01-06T00:53:00.566Z,1039.3
2017-01-06T00:55:32.963Z,1039.3
2017-01-06T00:58:05.353Z,1039.4
2017-01-06T01:00:37.909Z,1039.3
2017-01-06T01:03:10.326Z,1039.3
2017-01-06T01:05:42.955Z,1039.4
2017-01-06T01:08:15.543Z,1039.4
2017-01-06T01:10:47.983Z,1039.5
2017-01-06T01:13:20.371Z,1039.5
2017-01-06T01:15:52.766Z,1039.6
2017-01-06T01:18:25.163Z,1039.6
2017-01-06T01:20:57.555Z,1039.5
2017-01-06T01:23:29.951Z,1039.6
2017-01-06T01:26:02.338Z,1039.6
2017-01-06T01:28:34.725Z,1039.6
2017-01-06T01:31:07.122Z,1039.6
2017-01-06T01:33:39.522Z,1039.6
2017-01-06T01:36:11.915Z,1039.6
2017-01-06T01:38:44.514Z,1039.7
2017-01-06T01:41:16.910Z,1039.6
2017-01-06T01:43:49.336Z,1039.6
2017-01-06T01:46:21.723Z,1039.6
2017-01-06T01:48:54.121Z,1039.6
2017-01-06T01:51:26.529Z,1039.6
2017-01-06T01:53:59.118Z,1039.7
2017-01-06T01:56:31.494Z,1039.7
2017-01-06T01:59:03.901Z,1039.8
2017-01-06T02:01:36.286Z,1039.8
2017-01-06T02:04:08.668Z,1039.8
2017-01-06T02:06:41.045Z,1039.8
2017-01-06T02:09:13.520Z,1039.8
2017-01-06T02:11:45.917Z,1039.8
2017-01-06T02:14:18.314Z,1039.8
2017-01-06T02:16:50.690Z,1039.9
2017-01-06T02:19:23.090Z,1039.8
2017-01-06T02:21:55.461Z,1039.8
2017-01-06T02:24:27.840Z,1039.8
2017-01-06T02:27:00.243Z,1039.9
2017-01-06T02:29:32.700Z,1039.9
2017-01-06T02:32:05.081Z,1040
2017-01-06T02:34:37.447Z,1040
2017-01-06T02:37:09.831Z,1039.9
2017-01-06T02:39:42.230Z,1039.9
2017-01-06T02:42:14.638Z,1040
2017-01-06T02:44:46.999Z,1040
2017-01-06T02:47:19.394Z,1040
2017-01-06T02:49:51.786Z,1040
2017-01-06T02:52:24.175Z,1040
2017-01-06T02:54:56.571Z,1040
2017-01-06T02:57:29.241Z,1040
2017-01-06T03:00:01.613Z,1040
2017-01-06T03:02:33.999Z,1040
2017-01-06T03:05:06.401Z,1040
2017-01-06T03:07:38.775Z,1040.1
2017-01-06T03:10:11.164Z,1040
2017-01-06T03:12:43.533Z,1040.1
2017-01-06T03:15:15.938Z,1040.1
2017-01-06T03:17:48.498Z,1040.2
2017-01-06T03:20:20.886Z,1040.2
2017-01-06T03:22:53.267Z,1040.1
2017-01-06T03:25:25.665Z,1040.1
2017-01-06T03:27:58.055Z,1040.1
2017-01-06T03:30:30.445Z,1040.2
2017-01-06T03:33:02.837Z,1040.2
2017-01-06T03:35:35.216Z,1040.2
2017-01-06T03:38:07.594Z,1040.2
2017-01-06T03:40:39.987Z,1040.3
2017-01-06T03:43:12.371Z,1040.3
2017-01-06T03:45:44.766Z,1040.2
2017-01-06T03:48:17.144Z,1040.3
2017-01-06T03:50:49.531Z,1040.3
2017-01-06T03:53:21.920Z,1040.4
2017-01-06T03:55:54.315Z,1040.4
2017-01-06T03:58:26.689Z,1040.4
2017-01-06T04:00:59.081Z,1040.5
2017-01-06T04:03:31.468Z,1040.5
2017-01-06T04:06:03.848Z,1040.5
2017-01-06T04:08:36.240Z,1040.5
2017-01-06T04:11:08.619Z,1040.6
2017-01-06T04:13:41.008Z,1040.6
2017-01-06T04:16:13.390Z,1040.6
2017-01-06T04:18:45.797Z,1040.6
2017-01-06T04:21:18.177Z,1040.6
2017-01-06T04:23:50.577Z,1040.6
2017-01-06T04:26:22.982Z,1040.6
2017-01-06T04:28:55.369Z,1040.6
2017-01-06T04:31:27.760Z,1040.6
2017-01-06T04:34:00.141Z,1040.6
2017-01-06T04:36:32.509Z,1040.7
2017-01-06T04:39:04.887Z,1040.7
2017-01-06T04:41:37.305Z,1040.7
2017-01-06T04:44:09.711Z,1040.7
2017-01-06T04:46:42.092Z,1040.6
2017-01-06T04:49:14.491Z,1040.7
2017-01-06T04:51:46.857Z,1040.6
2017-01-06T04:54:19.260Z,1040.6
2017-01-06T04:56:51.647Z,1040.6
2017-01-06T04:59:24.044Z,1040.7
2017-01-06T05:01:56.436Z,1040.7
2017-01-06T05:04:28.819Z,1040.7
2017-01-06T05:07:01.248Z,1040.7
2017-01-06T05:09:33.645Z,1040.7
2017-01-06T05:12:06.043Z,1040.7
2017-01-06T05:14:38.414Z,1040.8
2017-01-06T05:17:10.813Z,1040.8
2017-01-06T05:19:43.185Z,1040.8
2017-01-06T05:22:15.593Z,1040.8
2017-01-06T05:24:47.977Z,1040.8
2017-01-06T05:27:20.368Z,1040.8
2017-01-06T05:29:52.757Z,1040.8
2017-01-06T05:32:25.149Z,1040.9
2017-01-06T05:34:57.543Z,1040.9
2017-01-06T05:37:29.936Z,1040.9
2017-01-06T05:40:02.335Z,1040.9
2017-01-06T05:42:34.731Z,1040.9
2017-01-06T05:45:07.116Z,1041
2017-01-06T05:47:39.512Z,1041
2017-01-06T05:50:11.889Z,1041
2017-01-06T05:52:44.274Z,1041
2017-01-06T05:55:16.638Z,1041
2017-01-06T05:57:49.033Z,1040.9
2017-01-06T06:00:21.419Z,1041
2017-01-06T06:02:53.806Z,1040.9
2017-01-06T06:05:26.188Z,1040.9
2017-01-06T06:07:58.583Z,1040.9
2017-01-06T06:10:30.973Z,1040.8
2017-01-06T06:13:03.380Z,1040.9
2017-01-06T06:15:35.751Z,1040.9
2017-01-06T06:18:08.164Z,1040.8
2017-01-06T06:20:40.549Z,1040.9
2017-01-06T06:23:12.941Z,1040.9
2017-01-06T06:25:45.316Z,1040.9
2017-01-06T06:28:24.532Z,1041
2017-01-06T06:30:58.139Z,1040.9
2017-01-06T06:33:44.124Z,1040.9
2017-01-06T06:36:16.782Z,1040.9
2017-01-06T06:39:05.239Z,1040.9
2017-01-06T06:41:45.071Z,1040.9
2017-01-06T06:44:44.280Z,1040.9
2017-01-06T06:47:16.658Z,1041
2017-01-06T06:49:49.069Z,1040.9
2017-01-06T06:52:21.462Z,1041
2017-01-06T06:54:53.841Z,1041
2017-01-06T06:57:26.219Z,1041
2017-01-06T06:59:58.610Z,1041.1
2017-01-06T07:02:31.419Z,1041
2017-01-06T07:05:03.823Z,1041.1
2017-01-06T07:07:36.214Z,1041.1
2017-01-06T07:10:08.591Z,1041.1
2017-01-06T07:12:40.983Z,1041.1
2017-01-06T07:15:13.368Z,1041.1
2017-01-06T07:17:45.775Z,1041.1
2017-01-06T07:20:18.155Z,1041.1
2017-01-06T07:22:50.529Z,1041.2
2017-01-06T07:25:22.931Z,1041.2
2017-01-06T07:27:55.317Z,1041.1
2017-01-06T07:30:27.707Z,1041.2
2017-01-06T07:33:00.088Z,1041.1
2017-01-06T07:35:32.490Z,1041.1
2017-01-06T07:38:04.865Z,1041.1
2017-01-06T07:40:37.286Z,1041.1
2017-01-06T07:43:09.683Z,1041.1
2017-01-06T07:45:42.071Z,1041.1
2017-01-06T07:48:14.465Z,1041.1
2017-01-06T07:50:46.845Z,1041.2
2017-01-06T07:53:19.265Z,1041.2
2017-01-06T07:55:51.649Z,1041.2
2017-01-06T07:58:24.040Z,1041.1
2017-01-06T08:00:56.425Z,1041.2
2017-01-06T08:03:28.825Z,1041.2
2017-01-06T08:06:01.217Z,1041.2
2017-01-06T08:08:33.603Z,1041.2
2017-01-06T08:11:05.992Z,1041.3
2017-01-06T08:13:38.417Z,1041.3
2017-01-06T08:16:10.827Z,1041.3
2017-01-06T08:18:43.213Z,1041.3
2017-01-06T08:21:15.618Z,1041.3
2017-01-06T08:23:49.163Z,1041.3
2017-01-06T08:26:26.260Z,1041.3
2017-01-06T08:29:14.833Z,1041.3
2017-01-06T08:31:59.708Z,1041.3
2017-01-06T08:34:44.754Z,1041.4
2017-01-06T08:37:24.803Z,1041.5
2017-01-06T08:40:13.930Z,1041.4
2017-01-06T08:43:00.610Z,1041.4
2017-01-06T08:45:35.920Z,1041.4
2017-01-06T08:48:14.789Z,1041.4
2017-01-06T08:50:54.765Z,1041.4
2017-01-06T08:53:33.898Z,1041.4
2017-01-06T08:56:19.371Z,1041.4
2017-01-06T08:58:52.641Z,1041.4
2017-01-06T09:01:25.047Z,1041.4
2017-01-06T09:03:57.491Z,1041.5
2017-01-06T09:06:29.981Z,1041.5
2017-01-06T09:09:02.470Z,1041.6
2017-01-06T09:11:34.966Z,1041.7
2017-01-06T09:14:07.428Z,1041.7
2017-01-06T09:16:39.911Z,1041.7
2017-01-06T09:19:12.313Z,1041.6
2017-01-06T09:21:44.819Z,1041.6
2017-01-06T09:24:17.301Z,1041.6
2017-01-06T09:26:49.725Z,1041.6
2017-01-06T09:29:22.196Z,1041.5
2017-01-06T09:31:54.691Z,1041.6
2017-01-06T09:34:27.169Z,1041.6
2017-01-06T09:36:59.604Z,1041.6
2017-01-06T09:39:32.037Z,1041.6
2017-01-06T09:42:04.424Z,1041.6
2017-01-06T09:44:36.812Z,1041.6
2017-01-06T09:47:09.189Z,1041.6
2017-01-06T09:49:41.580Z,1041.5
2017-01-06T09:52:13.966Z,1041.5
2017-01-06T09:54:46.349Z,1041.5
2017-01-06T09:57:18.755Z,1041.5
2017-01-06T09:59:51.135Z,1041.5
2017-01-06T10:02:23.543Z,1041.4
2017-01-06T10:04:55.921Z,1041.4
2017-01-06T10:07:28.322Z,1041.4
2017-01-06T10:10:00.700Z,1041.4
2017-01-06T10:12:33.082Z,1041.3
2017-01-06T10:15:05.534Z,1041.3
2017-01-06T10:17:37.973Z,1041.3
2017-01-06T10:20:10.405Z,1041.3
2017-01-06T10:22:42.802Z,1041.2
2017-01-06T10:25:15.200Z,1041.3
2017-01-06T10:27:47.610Z,1041.3
2017-01-06T10:30:20.002Z,1041.2
2017-01-06T10:32:52.398Z,1041.3
2017-01-06T10:35:24.816Z,1041.3
2017-01-06T10:37:57.197Z,1041.3
2017-01-06T10:40:29.597Z,1041.2
2017-01-06T10:43:01.994Z,1041.2
2017-01-06T10:45:34.385Z,1041.2
2017-01-06T10:48:06.811Z,1041.2
2017-01-06T10:50:39.205Z,1041.3
2017-01-06T10:53:11.608Z,1041.2
2017-01-06T10:55:43.995Z,1041.2
2017-01-06T10:58:16.395Z,1041.2
2017-01-06T11:00:48.782Z,1041.1
2017-01-06T11:03:21.174Z,1041.1
2017-01-06T11:05:53.566Z,1041.2
2017-01-06T11:08:25.945Z,1041.1
2017-01-06T11:10:58.361Z,1041.1
2017-01-06T11:13:30.750Z,1041
2017-01-06T11:16:03.150Z,1041
2017-01-06T11:18:35.537Z,1041
2017-01-06T11:21:08.066Z,1041
2017-01-06T11:23:40.508Z,1041
2017-01-06T11:26:12.893Z,1040.9
2017-01-06T11:28:45.285Z,1041
2017-01-06T11:31:17.664Z,1040.9
2017-01-06T11:33:50.056Z,1040.9
2017-01-06T11:36:22.444Z,1040.9
2017-01-06T11:38:54.841Z,1040.9
2017-01-06T11:41:27.251Z,1040.9
2017-01-06T11:43:59.660Z,1040.8
2017-01-06T11:46:32.153Z,1040.8
2017-01-06T11:49:04.595Z,1040.7
2017-01-06T11:51:37.035Z,1040.7
2017-01-06T11:54:09.417Z,1040.6
2017-01-06T11:56:41.818Z,1040.6
2017-01-06T11:59:14.203Z,1040.6
2017-01-06T12:01:46.602Z,1040.6
2017-01-06T12:04:18.997Z,1040.6
2017-01-06T12:06:51.397Z,1040.5
2017-01-06T12:09:23.792Z,1040.5
2017-01-06T12:11:56.167Z,1040.5
2017-01-06T12:14:28.564Z,1040.5
2017-01-06T12:17:00.942Z,1040.5
2017-01-06T12:19:33.338Z,1040.4
2017-01-06T12:22:05.740Z,1040.4
2017-01-06T12:24:38.177Z,1040.3
2017-01-06T12:27:10.589Z,1040.3
2017-01-06T12:29:42.964Z,1040.4
2017-01-06T12:32:15.358Z,1040.4
2017-01-06T12:34:47.752Z,1040.3
2017-01-06T12:37:20.286Z,1040.3
2017-01-06T12:39:52.686Z,1040.3
2017-01-06T12:42:25.065Z,1040.3
2017-01-06T12:44:57.454Z,1040.3
2017-01-06T12:47:29.822Z,1040.3
2017-01-06T12:50:02.278Z,1040.3
2017-01-06T12:52:34.664Z,1040.2
2017-01-06T12:55:07.061Z,1040.2
2017-01-06T12:57:39.442Z,1040.1
2017-01-06T13:00:11.826Z,1040.1
2017-01-06T13:02:44.285Z,1040
2017-01-06T13:05:16.707Z,1040
2017-01-06T13:07:49.097Z,1040
2017-01-06T13:10:21.488Z,1039.9
2017-01-06T13:12:53.878Z,1039.9
2017-01-06T13:15:26.281Z,1039.9
2017-01-06T13:17:58.659Z,1039.9
2017-01-06T13:20:31.062Z,1039.9
2017-01-06T13:23:03.483Z,1039.9
2017-01-06T13:25:35.876Z,1039.9
2017-01-06T13:28:08.294Z,1040
2017-01-06T13:30:40.704Z,1040
2017-01-06T13:33:13.110Z,1040
2017-01-06T13:35:45.522Z,1040
2017-01-06T13:38:17.912Z,1040.1
2017-01-06T13:40:50.473Z,1040
2017-01-06T13:43:23.143Z,1040
2017-01-06T13:45:55.564Z,1040
2017-01-06T13:48:27.970Z,1040
2017-01-06T13:51:00.380Z,1040
2017-01-06T13:53:32.755Z,1039.9
2017-01-06T13:56:05.141Z,1040
2017-01-06T13:58:37.550Z,1040
2017-01-06T14:01:09.942Z,1040
2017-01-06T14:03:42.337Z,1040
2017-01-06T14:06:14.723Z,1040
2017-01-06T14:08:47.121Z,1040
2017-01-06T14:11:19.527Z,1040
2017-01-06T14:13:51.889Z,1039.9
2017-01-06T14:16:24.273Z,1039.9
2017-01-06T14:18:56.661Z,1039.9
2017-01-06T14:21:29.062Z,1040
2017-01-06T14:24:01.872Z,1039.9
2017-01-06T14:26:34.300Z,1039.9
2017-01-06T14:29:06.691Z,1039.8
2017-01-06T14:31:39.063Z,1039.8
2017-01-06T14:34:11.470Z,1039.8
2017-01-06T14:36:43.866Z,1039.8
2017-01-06T14:39:16.286Z,1039.8
2017-01-06T14:41:48.689Z,1039.8
2017-01-06T14:44:21.082Z,1039.7
2017-01-06T14:46:53.475Z,1039.7
2017-01-06T14:49:25.864Z,1039.7
2017-01-06T14:51:58.267Z,1039.7
2017-01-06T14:54:30.678Z,1039.7
2017-01-06T14:57:03.110Z,1039.8
2017-01-06T14:59:35.517Z,1039.8
2017-01-06T15:02:07.883Z,1039.8
2017-01-06T15:04:40.273Z,1039.7
2017-01-06T15:07:12.668Z,1039.7
2017-01-06T15:09:45.086Z,1039.7
2017-01-06T15:12:17.483Z,1039.7
2017-01-06T15:14:49.886Z,1039.7
2017-01-06T15:17:22.344Z,1039.7
2017-01-06T15:19:54.736Z,1039.7
2017-01-06T15:22:27.133Z,1039.7
2017-01-06T15:24:59.518Z,1039.8
2017-01-06T15:27:31.895Z,1039.8
2017-01-06T15:30:04.278Z,1039.8
2017-01-06T15:32:36.661Z,1039.8
2017-01-06T15:35:09.070Z,1039.8
2017-01-06T15:37:41.461Z,1039.7
2017-01-06T15:40:13.858Z,1039.8
2017-01-06T15:42:46.244Z,1039.7
2017-01-06T15:45:18.621Z,1039.7
2017-01-06T15:47:51.019Z,1039.7
2017-01-06T15:50:23.391Z,1039.8
2017-01-06T15:52:55.779Z,1039.8
2017-01-06T15:55:28.163Z,1039.8
2017-01-06T15:58:00.541Z,1039.8
2017-01-06T16:00:32.935Z,1039.8
2017-01-06T16:03:05.325Z,1039.8
2017-01-06T16:05:37.728Z,1039.7
2017-01-06T16:08:10.099Z,1039.8
2017-01-06T16:10:42.480Z,1039.7
2017-01-06T16:13:14.888Z,1039.7
2017-01-06T16:15:47.285Z,1039.7
2017-01-06T16:18:19.696Z,1039.7
2017-01-06T16:20:52.085Z,1039.6
2017-01-06T16:23:24.508Z,1039.6
2017-01-06T16:25:56.921Z,1039.5
2017-01-06T16:28:29.312Z,1039.5
2017-01-06T16:31:01.708Z,1039.5
2017-01-06T16:33:34.098Z,1039.4
2017-01-06T16:36:06.488Z,1039.4
2017-01-06T16:38:38.865Z,1039.4
2017-01-06T16:41:11.267Z,1039.4
2017-01-06T16:43:43.647Z,1039.4
2017-01-06T16:46:16.076Z,1039.4
2017-01-06T16:48:48.478Z,1039.4
2017-01-06T16:51:20.910Z,1039.5
2017-01-06T16:53:53.572Z,1039.4
2017-01-06T16:56:26.090Z,1039.3
2017-01-06T16:58:58.483Z,1039.2
2017-01-06T17:01:30.901Z,1039
2017-01-06T17:04:03.357Z,1038.9
2017-01-06T17:06:35.922Z,1038.9
2017-01-06T17:09:08.438Z,1038.9
2017-01-06T17:11:40.840Z,1038.9
2017-01-06T17:14:13.854Z,1038.8
2017-01-06T17:16:46.344Z,1038.7
2017-01-06T17:19:18.742Z,1038.7
2017-01-06T17:21:51.118Z,1038.6
2017-01-06T17:24:23.531Z,1038.7
2017-01-06T17:26:55.924Z,1038.7
2017-01-06T17:29:28.297Z,1038.8
2017-01-06T17:32:00.691Z,1038.8
2017-01-06T17:34:33.075Z,1038.7
2017-01-06T17:37:05.468Z,1038.6
2017-01-06T17:39:37.968Z,1038.6
2017-01-06T17:42:10.368Z,1038.7
2017-01-06T17:44:42.753Z,1038.7
2017-01-06T17:47:15.132Z,1038.7
2017-01-06T17:49:47.529Z,1038.7
2017-01-06T17:52:19.923Z,1038.8
2017-01-06T17:54:52.770Z,1038.8
2017-01-06T17:57:25.146Z,1038.8
2017-01-06T17:59:57.538Z,1038.8
2017-01-06T18:02:29.943Z,1038.9
2017-01-06T18:05:02.325Z,1038.9
2017-01-06T18:07:34.697Z,1038.8
2017-01-06T18:10:07.277Z,1038.7
2017-01-06T18:12:39.663Z,1038.7
2017-01-06T18:15:12.046Z,1038.7
2017-01-06T18:17:44.438Z,1038.5
2017-01-06T18:20:16.827Z,1038.5
2017-01-06T18:22:49.203Z,1038.5
2017-01-06T18:25:21.586Z,1038.5
2017-01-06T18:27:53.977Z,1038.5
2017-01-06T18:30:26.364Z,1038.4
2017-01-06T18:32:58.767Z,1038.4
2017-01-06T18:35:31.334Z,1038.3
2017-01-06T18:38:03.745Z,1038.4
2017-01-06T18:40:36.120Z,1038.3
2017-01-06T18:43:08.506Z,1038.4
2017-01-06T18:45:40.892Z,1038.3
2017-01-06T18:48:13.311Z,1038.3
2017-01-06T18:50:45.691Z,1038.3
2017-01-06T18:53:18.070Z,1038.3
2017-01-06T18:55:50.452Z,1038.3
2017-01-06T18:58:22.871Z,1038.3
2017-01-06T19:00:55.270Z,1038.2
2017-01-06T19:03:27.657Z,1038.2
2017-01-06T19:06:00.019Z,1038.2
2017-01-06T19:08:32.402Z,1038.2
2017-01-06T19:11:04.789Z,1038.1
2017-01-06T19:13:37.179Z,1038.1
2017-01-06T19:16:09.568Z,1038.1
2017-01-06T19:18:41.943Z,1038.1
2017-01-06T19:21:14.317Z,1038.1
2017-01-06T19:23:46.720Z,1038
2017-01-06T19:26:19.108Z,1038
2017-01-06T19:28:51.525Z,1037.9
2017-01-06T19:31:23.924Z,1037.9
2017-01-06T19:33:56.320Z,1037.9
2017-01-06T19:36:28.704Z,1038
2017-01-06T19:39:01.109Z,1037.9
2017-01-06T19:41:33.504Z,1037.9
2017-01-06T19:44:05.910Z,1037.9
2017-01-06T19:46:38.294Z,1037.9
2017-01-06T19:49:10.667Z,1037.9
2017-01-06T19:51:43.069Z,1037.9
2017-01-06T19:54:15.476Z,1037.9
2017-01-06T19:56:47.849Z,1038
2017-01-06T19:59:20.254Z,1037.9
2017-01-06T20:01:52.638Z,1037.8
2017-01-06T20:04:25.215Z,1037.8
2017-01-06T20:06:57.606Z,1037.8
2017-01-06T20:09:30.016Z,1037.8
2017-01-06T20:12:02.391Z,1037.7
2017-01-06T20:14:34.785Z,1037.7
2017-01-06T20:17:07.174Z,1037.7
2017-01-06T20:19:39.574Z,1037.6
2017-01-06T20:22:11.974Z,1037.6
2017-01-06T20:24:44.354Z,1037.7
2017-01-06T20:27:16.747Z,1037.6
2017-01-06T20:29:49.141Z,1037.6
2017-01-06T20:32:21.527Z,1037.6
2017-01-06T20:34:53.933Z,1037.6
2017-01-06T20:37:26.338Z,1037.6
2017-01-06T20:39:58.729Z,1037.6
2017-01-06T20:42:31.105Z,1037.6
2017-01-06T20:45:03.533Z,1037.5
2017-01-06T20:47:35.928Z,1037.5
2017-01-06T20:50:08.333Z,1037.5
2017-01-06T20:52:40.715Z,1037.4
2017-01-06T20:55:13.092Z,1037.4
2017-01-06T20:57:45.489Z,1037.4
2017-01-06T21:00:17.855Z,1037.4
2017-01-06T21:02:50.251Z,1037.3
2017-01-06T21:05:22.638Z,1037.3
2017-01-06T21:07:55.021Z,1037.2
2017-01-06T21:10:27.402Z,1037.1
2017-01-06T21:12:59.803Z,1037.1
2017-01-06T21:15:32.204Z,1037
2017-01-06T21:18:04.596Z,1037
2017-01-06T21:20:36.997Z,1037
2017-01-06T21:23:09.393Z,1037.1
2017-01-06T21:25:41.761Z,1037
2017-01-06T21:28:14.155Z,1037
2017-01-06T21:30:49.934Z,1037
2017-01-06T21:33:22.365Z,1037
2017-01-06T21:35:54.792Z,1037
2017-01-06T21:38:31.375Z,1037
2017-01-06T21:41:10.749Z,1037
2017-01-06T21:43:45.297Z,1037
2017-01-06T21:46:35.676Z,1037
2017-01-06T21:49:23.043Z,1037
2017-01-06T21:52:02.877Z,1036.9
2017-01-06T21:54:42.323Z,1036.8
2017-01-06T21:57:21.372Z,1036.9
2017-01-06T22:00:04.226Z,1036.7
2017-01-06T22:02:41.179Z,1036.7
2017-01-06T22:05:29.696Z,1036.6
2017-01-06T22:08:06.799Z,1036.7
2017-01-06T22:10:42.612Z,1036.6
2017-01-06T22:13:18.650Z,1036.5
2017-01-06T22:15:57.196Z,1036.5
2017-01-06T22:18:30.504Z,1036.5
2017-01-06T22:21:03.691Z,1036.5
2017-01-06T22:23:36.881Z,1036.3
2017-01-06T22:26:09.649Z,1036.3
2017-01-06T22:28:42.915Z,1036.3
2017-01-06T22:31:15.354Z,1036.4
2017-01-06T22:33:47.756Z,1036.3
2017-01-06T22:36:20.175Z,1036.3
2017-01-06T22:38:52.554Z,1036.4
2017-01-06T22:42:43.164Z,1036.3
2017-01-06T22:45:15.662Z,1036.3
2017-01-06T22:47:48.128Z,1036.3
2017-01-06T22:50:20.529Z,1036.3
2017-01-06T22:52:52.950Z,1036.2
2017-01-06T22:55:25.351Z,1036.2
2017-01-06T22:57:57.849Z,1036.2
2017-01-06T23:00:30.439Z,1036.2
2017-01-06T23:03:02.897Z,1036.2
2017-01-06T23:05:35.379Z,1036.3
2017-01-06T23:08:07.831Z,1036.3
2017-01-06T23:10:40.440Z,1036.3
2017-01-06T23:13:12.837Z,1036.3
2017-01-06T23:15:45.442Z,1036.2
2017-01-06T23:18:17.864Z,1036.1
2017-01-06T23:20:50.285Z,1036
2017-01-06T23:23:22.696Z,1036
2017-01-06T23:25:55.110Z,1035.9
2017-01-06T23:28:27.794Z,1035.8
2017-01-06T23:31:00.237Z,1035.7
2017-01-06T23:33:32.825Z,1035.7
2017-01-06T23:36:05.244Z,1035.6
2017-01-06T23:38:37.682Z,1035.5
2017-01-06T23:41:10.198Z,1035.5
2017-01-06T23:43:42.593Z,1035.5
2017-01-06T23:46:15.188Z,1035.4
2017-01-06T23:48:47.585Z,1035.3
2017-01-06T23:51:19.975Z,1035.4
2017-01-06T23:53:52.394Z,1035.4
2017-01-06T23:56:24.771Z,1035.4
2017-01-06T23:58:57.279Z,1035.3
